サンサルバドル の空港の天気 - METARとTAF

エルサルバドル国際空港 ( MSLP / SAL ) - エルサルバドル サンサルバドル
飛行場実況気象(Metar)
観測時間12/06 13:50 CST (12/06 19:50 UTC)
風向・風速南 4m/s
視程10km以上
天気現象
少しの雲 雲底高度 1830m
気温32℃
湿度52%
気圧1012hPa
METARMSLP 061950Z 18008KT 130V210 9999 FEW060 32/21 Q1012 A2989 NOSIG
過去の天気等 Google飛行場航空写真 Wunderground天気予報

過去48時間のMETAR

飛行場予報(TAF)
発表時間: 12/06 09:25 CST (12/06 15:25 UTC)
予報対象時間: 6日12時 CST ~ 7日12時 CST
風向・風速北東 5m/s
視程10km以上
少しの雲 雲底高度 2130m
6日14時 CST ~ 6日18時 CST に一時的に
風向・風速南南西 5m/s
TAF MSLP 061525Z 0618/0718 04010KT 9999 FEW070 TX32/0618Z TN21/0712Z
TEMPO 0620/0700 21010KT